Alexandria, Nebraska
Current Conditions -  °F | °C
As of 9:15 AM on Wednesday 26 Nov 2014 (Local Time) from KHJH Reporting Station
Overcast Overcast  
Wind Chill: -6°   Ceiling: 2500
Heat Index:   Visibility: 10mi
Dew Point: -5°   Wind: 25mph
Humidity: 68%   Direction: 330°NNW
Pressure: 30.1"   Gusts: 30mph
Location:  40.25°N, 97.39°W
Report Text: KHJH 261515Z AUTO 33022G26KT 10SM OVC025 01/M04 A3010 RMK AO2 T00081045
Loading
Personal Weather Stations






























Interactive Weather Map New forecast layout! Learn more

10-Day Weather Forecast

Advertisements
Track Severe Weather on mobile